sensor_id;sensor_type;location;lat;lon;timestamp;pressure;altitude;pressure_sealevel;temperature
68939;BMP180;59064;45.294;11.816;2023-03-03T00:01:30;101431.00;;;6.40
68939;BMP180;59064;45.294;11.816;2023-03-03T00:03:58;101435.60;;;6.40
68939;BMP180;59064;45.294;11.816;2023-03-03T00:06:25;101434.60;;;6.40
68939;BMP180;59064;45.294;11.816;2023-03-03T00:08:51;101433.60;;;6.30
68939;BMP180;59064;45.294;11.816;2023-03-03T00:11:17;101433.40;;;6.30
68939;BMP180;59064;45.294;11.816;2023-03-03T00:13:50;101430.60;;;6.22
68939;BMP180;59064;45.294;11.816;2023-03-03T00:16:37;101428.20;;;6.20
68939;BMP180;59064;45.294;11.816;2023-03-03T00:19:17;101424.40;;;6.10
68939;BMP180;59064;45.294;11.816;2023-03-03T00:21:49;101424.40;;;6.00
68939;BMP180;59064;45.294;11.816;2023-03-03T00:24:44;101421.20;;;6.00
68939;BMP180;59064;45.294;11.816;2023-03-03T00:27:30;101418.60;;;5.96
68939;BMP180;59064;45.294;11.816;2023-03-03T00:29:59;101414.40;;;5.92
68939;BMP180;59064;45.294;11.816;2023-03-03T00:32:43;101413.60;;;5.90
68939;BMP180;59064;45.294;11.816;2023-03-03T00:38:14;101412.20;;;5.90
68939;BMP180;59064;45.294;11.816;2023-03-03T00:40:41;101409.20;;;5.90
68939;BMP180;59064;45.294;11.816;2023-03-03T00:45:53;101406.00;;;5.80
68939;BMP180;59064;45.294;11.816;2023-03-03T00:51:27;101403.20;;;5.70
68939;BMP180;59064;45.294;11.816;2023-03-03T00:53:55;101401.80;;;5.70
68939;BMP180;59064;45.294;11.816;2023-03-03T00:56:22;101404.20;;;5.70
68939;BMP180;59064;45.294;11.816;2023-03-03T00:58:49;101401.60;;;5.70
68939;BMP180;59064;45.294;11.816;2023-03-03T01:01:17;101400.60;;;5.70
68939;BMP180;59064;45.294;11.816;2023-03-03T01:03:43;101393.60;;;5.70
68939;BMP180;59064;45.294;11.816;2023-03-03T01:06:10;101391.60;;;5.70
68939;BMP180;59064;45.294;11.816;2023-03-03T01:08:37;101395.00;;;5.70
68939;BMP180;59064;45.294;11.816;2023-03-03T01:11:08;101393.40;;;5.70
68939;BMP180;59064;45.294;11.816;2023-03-03T01:13:36;101391.80;;;5.60
68939;BMP180;59064;45.294;11.816;2023-03-03T01:16:02;101388.60;;;5.60
68939;BMP180;59064;45.294;11.816;2023-03-03T01:18:29;101384.20;;;5.60
68939;BMP180;59064;45.294;11.816;2023-03-03T01:20:55;101382.20;;;5.50
68939;BMP180;59064;45.294;11.816;2023-03-03T01:23:20;101379.20;;;5.50
68939;BMP180;59064;45.294;11.816;2023-03-03T01:25:46;101376.20;;;5.50
68939;BMP180;59064;45.294;11.816;2023-03-03T01:28:12;101373.40;;;5.42
68939;BMP180;59064;45.294;11.816;2023-03-03T01:30:38;101368.20;;;5.40
68939;BMP180;59064;45.294;11.816;2023-03-03T01:33:03;101370.20;;;5.40
68939;BMP180;59064;45.294;11.816;2023-03-03T01:35:29;101363.80;;;5.40
68939;BMP180;59064;45.294;11.816;2023-03-03T01:37:55;101362.20;;;5.40
68939;BMP180;59064;45.294;11.816;2023-03-03T01:40:25;101362.60;;;5.40
68939;BMP180;59064;45.294;11.816;2023-03-03T01:42:51;101358.60;;;5.40
68939;BMP180;59064;45.294;11.816;2023-03-03T01:48:28;101356.80;;;5.50
68939;BMP180;59064;45.294;11.816;2023-03-03T01:51:00;101352.60;;;5.60
68939;BMP180;59064;45.294;11.816;2023-03-03T01:53:53;101349.60;;;5.60
68939;BMP180;59064;45.294;11.816;2023-03-03T01:56:19;101347.00;;;5.70
68939;BMP180;59064;45.294;11.816;2023-03-03T01:59:15;101341.00;;;5.70
68939;BMP180;59064;45.294;11.816;2023-03-03T02:01:39;101338.80;;;5.80
68939;BMP180;59064;45.294;11.816;2023-03-03T02:04:08;101334.20;;;5.80
68939;BMP180;59064;45.294;11.816;2023-03-03T02:06:37;101328.80;;;5.80
68939;BMP180;59064;45.294;11.816;2023-03-03T02:11:43;101329.60;;;5.80
68939;BMP180;59064;45.294;11.816;2023-03-03T02:14:11;101331.60;;;5.80
68939;BMP180;59064;45.294;11.816;2023-03-03T02:16:37;101329.80;;;5.80
68939;BMP180;59064;45.294;11.816;2023-03-03T02:19:12;101322.80;;;5.80
68939;BMP180;59064;45.294;11.816;2023-03-03T02:21:41;101320.40;;;5.76
68939;BMP180;59064;45.294;11.816;2023-03-03T02:26:45;101319.20;;;5.80
68939;BMP180;59064;45.294;11.816;2023-03-03T02:29:12;101315.80;;;5.80
68939;BMP180;59064;45.294;11.816;2023-03-03T02:31:38;101319.40;;;5.70
68939;BMP180;59064;45.294;11.816;2023-03-03T02:34:04;101317.40;;;5.70
68939;BMP180;59064;45.294;11.816;2023-03-03T02:36:34;101316.60;;;5.70
68939;BMP180;59064;45.294;11.816;2023-03-03T02:39:13;101313.60;;;5.60
68939;BMP180;59064;45.294;11.816;2023-03-03T02:41:59;101309.20;;;5.60
68939;BMP180;59064;45.294;11.816;2023-03-03T02:44:29;101307.40;;;5.60
68939;BMP180;59064;45.294;11.816;2023-03-03T02:46:56;101307.80;;;5.60
68939;BMP180;59064;45.294;11.816;2023-03-03T02:49:32;101302.20;;;5.60
68939;BMP180;59064;45.294;11.816;2023-03-03T02:51:59;101301.80;;;5.66
68939;BMP180;59064;45.294;11.816;2023-03-03T02:54:27;101300.40;;;5.68
68939;BMP180;59064;45.294;11.816;2023-03-03T02:56:54;101300.40;;;5.60
68939;BMP180;59064;45.294;11.816;2023-03-03T02:59:20;101295.80;;;5.60
68939;BMP180;59064;45.294;11.816;2023-03-03T03:01:46;101294.00;;;5.60
68939;BMP180;59064;45.294;11.816;2023-03-03T03:04:16;101296.80;;;5.52
68939;BMP180;59064;45.294;11.816;2023-03-03T03:06:43;101301.40;;;5.50
68939;BMP180;59064;45.294;11.816;2023-03-03T03:09:11;101297.40;;;5.48
68939;BMP180;59064;45.294;11.816;2023-03-03T03:11:37;101290.60;;;5.40
68939;BMP180;59064;45.294;11.816;2023-03-03T03:14:05;101290.60;;;5.40
68939;BMP180;59064;45.294;11.816;2023-03-03T03:16:31;101287.80;;;5.40
68939;BMP180;59064;45.294;11.816;2023-03-03T03:18:59;101284.20;;;5.40
68939;BMP180;59064;45.294;11.816;2023-03-03T03:21:26;101281.80;;;5.30
68939;BMP180;59064;45.294;11.816;2023-03-03T03:23:52;101279.20;;;5.30
68939;BMP180;59064;45.294;11.816;2023-03-03T03:26:18;101278.80;;;5.24
68939;BMP180;59064;45.294;11.816;2023-03-03T03:28:46;101275.80;;;5.30
68939;BMP180;59064;45.294;11.816;2023-03-03T03:31:13;101278.80;;;5.30
68939;BMP180;59064;45.294;11.816;2023-03-03T03:33:38;101278.20;;;5.28
68939;BMP180;59064;45.294;11.816;2023-03-03T03:36:05;101274.40;;;5.30
68939;BMP180;59064;45.294;11.816;2023-03-03T03:38:31;101270.60;;;5.30
68939;BMP180;59064;45.294;11.816;2023-03-03T03:40:57;101271.20;;;5.30
68939;BMP180;59064;45.294;11.816;2023-03-03T03:43:23;101264.20;;;5.30
68939;BMP180;59064;45.294;11.816;2023-03-03T03:45:49;101266.40;;;5.38
68939;BMP180;59064;45.294;11.816;2023-03-03T03:48:16;101267.00;;;5.30
68939;BMP180;59064;45.294;11.816;2023-03-03T03:50:42;101265.40;;;5.30
68939;BMP180;59064;45.294;11.816;2023-03-03T03:53:07;101265.40;;;5.30
68939;BMP180;59064;45.294;11.816;2023-03-03T03:55:33;101267.60;;;5.26
68939;BMP180;59064;45.294;11.816;2023-03-03T03:57:59;101261.80;;;5.20
68939;BMP180;59064;45.294;11.816;2023-03-03T04:00:25;101266.80;;;5.22
68939;BMP180;59064;45.294;11.816;2023-03-03T04:02:51;101261.80;;;5.20
68939;BMP180;59064;45.294;11.816;2023-03-03T04:05:17;101262.00;;;5.16
68939;BMP180;59064;45.294;11.816;2023-03-03T04:07:43;101260.80;;;5.10
68939;BMP180;59064;45.294;11.816;2023-03-03T04:10:10;101261.00;;;5.00
68939;BMP180;59064;45.294;11.816;2023-03-03T04:12:36;101259.80;;;5.00
68939;BMP180;59064;45.294;11.816;2023-03-03T04:15:08;101263.40;;;4.90
68939;BMP180;59064;45.294;11.816;2023-03-03T04:17:34;101266.40;;;4.80
68939;BMP180;59064;45.294;11.816;2023-03-03T04:20:00;101263.60;;;4.70
68939;BMP180;59064;45.294;11.816;2023-03-03T04:22:27;101265.00;;;4.70
68939;BMP180;59064;45.294;11.816;2023-03-03T04:24:54;101265.60;;;4.68
68939;BMP180;59064;45.294;11.816;2023-03-03T04:27:19;101266.40;;;4.62
68939;BMP180;59064;45.294;11.816;2023-03-03T04:29:45;101267.60;;;4.70
68939;BMP180;59064;45.294;11.816;2023-03-03T04:32:11;101269.00;;;4.62
68939;BMP180;59064;45.294;11.816;2023-03-03T04:34:37;101269.00;;;4.60
68939;BMP180;59064;45.294;11.816;2023-03-03T04:37:02;101266.40;;;4.60
68939;BMP180;59064;45.294;11.816;2023-03-03T04:39:28;101265.40;;;4.60
68939;BMP180;59064;45.294;11.816;2023-03-03T04:41:54;101271.20;;;4.70
68939;BMP180;59064;45.294;11.816;2023-03-03T04:44:20;101272.80;;;4.70
68939;BMP180;59064;45.294;11.816;2023-03-03T04:46:46;101268.80;;;4.64
68939;BMP180;59064;45.294;11.816;2023-03-03T04:49:12;101271.60;;;4.60
68939;BMP180;59064;45.294;11.816;2023-03-03T04:51:37;101275.40;;;4.60
68939;BMP180;59064;45.294;11.816;2023-03-03T04:54:03;101274.60;;;4.60
68939;BMP180;59064;45.294;11.816;2023-03-03T04:56:30;101274.40;;;4.60
68939;BMP180;59064;45.294;11.816;2023-03-03T04:58:57;101274.80;;;4.60
68939;BMP180;59064;45.294;11.816;2023-03-03T05:01:22;101276.40;;;4.60
68939;BMP180;59064;45.294;11.816;2023-03-03T05:03:48;101272.40;;;4.52
68939;BMP180;59064;45.294;11.816;2023-03-03T05:06:14;101264.20;;;4.50
68939;BMP180;59064;45.294;11.816;2023-03-03T05:08:41;101267.20;;;4.50
68939;BMP180;59064;45.294;11.816;2023-03-03T05:11:07;101270.60;;;4.52
68939;BMP180;59064;45.294;11.816;2023-03-03T05:13:33;101273.20;;;4.52
68939;BMP180;59064;45.294;11.816;2023-03-03T05:15:59;101272.20;;;4.50
68939;BMP180;59064;45.294;11.816;2023-03-03T05:18:25;101272.60;;;4.50
68939;BMP180;59064;45.294;11.816;2023-03-03T05:20:52;101272.20;;;4.40
68939;BMP180;59064;45.294;11.816;2023-03-03T05:23:19;101273.60;;;4.30
68939;BMP180;59064;45.294;11.816;2023-03-03T05:25:49;101274.20;;;4.16
68939;BMP180;59064;45.294;11.816;2023-03-03T05:28:16;101271.40;;;4.00
68939;BMP180;59064;45.294;11.816;2023-03-03T05:30:42;101268.60;;;3.92
68939;BMP180;59064;45.294;11.816;2023-03-03T05:33:13;101268.80;;;3.96
68939;BMP180;59064;45.294;11.816;2023-03-03T05:35:39;101266.20;;;3.90
68939;BMP180;59064;45.294;11.816;2023-03-03T05:38:05;101267.40;;;3.68
68939;BMP180;59064;45.294;11.816;2023-03-03T05:40:31;101264.20;;;3.40
68939;BMP180;59064;45.294;11.816;2023-03-03T05:42:56;101265.00;;;3.20
68939;BMP180;59064;45.294;11.816;2023-03-03T05:45:22;101268.60;;;3.00
68939;BMP180;59064;45.294;11.816;2023-03-03T05:47:50;101271.60;;;2.90
68939;BMP180;59064;45.294;11.816;2023-03-03T05:50:18;101271.40;;;2.74
68939;BMP180;59064;45.294;11.816;2023-03-03T05:52:47;101271.40;;;2.78
68939;BMP180;59064;45.294;11.816;2023-03-03T05:55:13;101274.60;;;2.80
68939;BMP180;59064;45.294;11.816;2023-03-03T05:57:39;101278.20;;;2.72
68939;BMP180;59064;45.294;11.816;2023-03-03T06:00:05;101274.20;;;2.70
68939;BMP180;59064;45.294;11.816;2023-03-03T06:02:31;101274.00;;;2.70
68939;BMP180;59064;45.294;11.816;2023-03-03T06:04:57;101272.60;;;2.70
68939;BMP180;59064;45.294;11.816;2023-03-03T06:07:22;101281.60;;;2.70
68939;BMP180;59064;45.294;11.816;2023-03-03T06:09:48;101278.40;;;2.78
68939;BMP180;59064;45.294;11.816;2023-03-03T06:12:13;101279.40;;;2.80
68939;BMP180;59064;45.294;11.816;2023-03-03T06:14:39;101284.00;;;2.80
68939;BMP180;59064;45.294;11.816;2023-03-03T06:17:05;101282.80;;;2.90
68939;BMP180;59064;45.294;11.816;2023-03-03T06:19:31;101285.80;;;2.92
68939;BMP180;59064;45.294;11.816;2023-03-03T06:21:57;101284.60;;;3.00
68939;BMP180;59064;45.294;11.816;2023-03-03T06:24:23;101289.80;;;3.10
68939;BMP180;59064;45.294;11.816;2023-03-03T06:26:50;101294.20;;;3.20
68939;BMP180;59064;45.294;11.816;2023-03-03T06:29:16;101292.60;;;3.30
68939;BMP180;59064;45.294;11.816;2023-03-03T06:31:42;101301.40;;;3.40
68939;BMP180;59064;45.294;11.816;2023-03-03T06:34:09;101303.60;;;3.52
68939;BMP180;59064;45.294;11.816;2023-03-03T06:36:35;101302.60;;;3.68
68939;BMP180;59064;45.294;11.816;2023-03-03T06:39:00;101303.40;;;3.80
68939;BMP180;59064;45.294;11.816;2023-03-03T06:41:27;101306.60;;;4.00
68939;BMP180;59064;45.294;11.816;2023-03-03T06:43:53;101311.60;;;4.16
68939;BMP180;59064;45.294;11.816;2023-03-03T06:46:19;101311.40;;;4.34
68939;BMP180;59064;45.294;11.816;2023-03-03T06:48:45;101314.20;;;4.50
68939;BMP180;59064;45.294;11.816;2023-03-03T06:51:38;101312.60;;;4.70
68939;BMP180;59064;45.294;11.816;2023-03-03T06:54:19;101312.60;;;4.96
68939;BMP180;59064;45.294;11.816;2023-03-03T06:56:46;101315.00;;;5.20
68939;BMP180;59064;45.294;11.816;2023-03-03T06:59:20;101326.40;;;5.40
68939;BMP180;59064;45.294;11.816;2023-03-03T07:01:48;101333.40;;;5.64
68939;BMP180;59064;45.294;11.816;2023-03-03T07:06:40;101340.80;;;6.08
68939;BMP180;59064;45.294;11.816;2023-03-03T07:09:17;101343.40;;;6.22
68939;BMP180;59064;45.294;11.816;2023-03-03T07:11:44;101344.20;;;6.40
68939;BMP180;59064;45.294;11.816;2023-03-03T07:14:17;101339.20;;;6.58
68939;BMP180;59064;45.294;11.816;2023-03-03T07:16:43;101342.60;;;6.70
68939;BMP180;59064;45.294;11.816;2023-03-03T07:19:28;101339.60;;;6.86
68939;BMP180;59064;45.294;11.816;2023-03-03T07:21:54;101342.80;;;7.10
68939;BMP180;59064;45.294;11.816;2023-03-03T07:24:29;101350.80;;;7.30
68939;BMP180;59064;45.294;11.816;2023-03-03T07:29:46;101357.20;;;7.80
68939;BMP180;59064;45.294;11.816;2023-03-03T07:32:39;101358.40;;;8.00
68939;BMP180;59064;45.294;11.816;2023-03-03T07:35:43;101358.80;;;8.20
68939;BMP180;59064;45.294;11.816;2023-03-03T07:38:39;101362.40;;;8.40
68939;BMP180;59064;45.294;11.816;2023-03-03T07:41:16;101354.80;;;8.60
68939;BMP180;59064;45.294;11.816;2023-03-03T07:44:01;101361.80;;;8.70
68939;BMP180;59064;45.294;11.816;2023-03-03T07:46:44;101357.20;;;8.80
68939;BMP180;59064;45.294;11.816;2023-03-03T07:49:36;101359.20;;;8.98
68939;BMP180;59064;45.294;11.816;2023-03-03T07:52:26;101363.00;;;9.12
68939;BMP180;59064;45.294;11.816;2023-03-03T07:54:55;101367.60;;;9.32
68939;BMP180;59064;45.294;11.816;2023-03-03T07:57:36;101366.20;;;9.52
68939;BMP180;59064;45.294;11.816;2023-03-03T08:02:46;101364.80;;;9.90
68939;BMP180;59064;45.294;11.816;2023-03-03T08:05:29;101370.00;;;10.10
68939;BMP180;59064;45.294;11.816;2023-03-03T08:10:45;101373.60;;;10.50
68939;BMP180;59064;45.294;11.816;2023-03-03T08:13:40;101376.00;;;10.64
68939;BMP180;59064;45.294;11.816;2023-03-03T08:18:39;101382.00;;;11.00
68939;BMP180;59064;45.294;11.816;2023-03-03T08:21:18;101383.60;;;11.10
68939;BMP180;59064;45.294;11.816;2023-03-03T08:23:44;101385.40;;;11.30
68939;BMP180;59064;45.294;11.816;2023-03-03T08:26:11;101386.80;;;11.40
68939;BMP180;59064;45.294;11.816;2023-03-03T08:28:41;101385.00;;;11.52
68939;BMP180;59064;45.294;11.816;2023-03-03T08:31:07;101387.60;;;11.70
68939;BMP180;59064;45.294;11.816;2023-03-03T08:33:33;101385.60;;;11.90
68939;BMP180;59064;45.294;11.816;2023-03-03T08:35:59;101381.60;;;12.00
68939;BMP180;59064;45.294;11.816;2023-03-03T08:38:25;101378.00;;;12.10
68939;BMP180;59064;45.294;11.816;2023-03-03T08:40:51;101383.80;;;12.22
68939;BMP180;59064;45.294;11.816;2023-03-03T08:43:17;101384.40;;;12.38
68939;BMP180;59064;45.294;11.816;2023-03-03T08:45:48;101383.20;;;12.40
68939;BMP180;59064;45.294;11.816;2023-03-03T08:48:15;101387.20;;;12.40
68939;BMP180;59064;45.294;11.816;2023-03-03T08:50:42;101383.20;;;12.48
68939;BMP180;59064;45.294;11.816;2023-03-03T08:53:10;101381.00;;;12.60
68939;BMP180;59064;45.294;11.816;2023-03-03T08:55:36;101384.20;;;12.76
68939;BMP180;59064;45.294;11.816;2023-03-03T08:58:02;101389.80;;;12.90
68939;BMP180;59064;45.294;11.816;2023-03-03T09:00:28;101392.20;;;12.90
68939;BMP180;59064;45.294;11.816;2023-03-03T09:02:54;101389.40;;;13.00
68939;BMP180;59064;45.294;11.816;2023-03-03T09:05:21;101392.40;;;13.10
68939;BMP180;59064;45.294;11.816;2023-03-03T09:07:48;101393.40;;;13.20
68939;BMP180;59064;45.294;11.816;2023-03-03T09:10:21;101395.00;;;13.26
68939;BMP180;59064;45.294;11.816;2023-03-03T09:12:52;101395.60;;;13.30
68939;BMP180;59064;45.294;11.816;2023-03-03T09:15:32;101395.80;;;13.40
68939;BMP180;59064;45.294;11.816;2023-03-03T09:18:19;101396.20;;;13.40
68939;BMP180;59064;45.294;11.816;2023-03-03T09:20:48;101394.40;;;13.50
68939;BMP180;59064;45.294;11.816;2023-03-03T09:23:30;101398.80;;;13.52
68939;BMP180;59064;45.294;11.816;2023-03-03T09:29:22;101396.80;;;13.60
68939;BMP180;59064;45.294;11.816;2023-03-03T09:32:05;101399.80;;;13.68
68939;BMP180;59064;45.294;11.816;2023-03-03T09:37:32;101400.60;;;13.98
68939;BMP180;59064;45.294;11.816;2023-03-03T09:39:58;101402.80;;;14.10
68939;BMP180;59064;45.294;11.816;2023-03-03T09:42:48;101404.00;;;14.30
68939;BMP180;59064;45.294;11.816;2023-03-03T09:56:37;101412.60;;;14.66
68939;BMP180;59064;45.294;11.816;2023-03-03T10:05:17;101405.80;;;15.16
68939;BMP180;59064;45.294;11.816;2023-03-03T10:29:27;101424.00;;;15.46
68939;BMP180;59064;45.294;11.816;2023-03-03T10:35:43;101423.60;;;16.20
68939;BMP180;59064;45.294;11.816;2023-03-03T10:46:50;101432.20;;;16.30
68939;BMP180;59064;45.294;11.816;2023-03-03T10:52:32;101432.60;;;16.28
68939;BMP180;59064;45.294;11.816;2023-03-03T10:55:20;101427.80;;;16.20
68939;BMP180;59064;45.294;11.816;2023-03-03T11:12:51;101438.80;;;16.70
68939;BMP180;59064;45.294;11.816;2023-03-03T11:15:59;101433.40;;;16.70
68939;BMP180;59064;45.294;11.816;2023-03-03T11:21:25;101429.80;;;16.90
68939;BMP180;59064;45.294;11.816;2023-03-03T11:30:05;101419.60;;;17.92
68939;BMP180;59064;45.294;11.816;2023-03-03T11:36:04;101413.40;;;17.90
68939;BMP180;59064;45.294;11.816;2023-03-03T11:38:59;101409.00;;;17.80
68939;BMP180;59064;45.294;11.816;2023-03-03T11:41:36;101408.80;;;17.76
68939;BMP180;59064;45.294;11.816;2023-03-03T11:47:21;101401.80;;;18.44
68939;BMP180;59064;45.294;11.816;2023-03-03T11:50:20;101404.60;;;18.30
68939;BMP180;59064;45.294;11.816;2023-03-03T11:55:58;101396.20;;;18.20
68939;BMP180;59064;45.294;11.816;2023-03-03T11:58:46;101397.60;;;17.90
68939;BMP180;59064;45.294;11.816;2023-03-03T12:04:19;101392.60;;;17.98
68939;BMP180;59064;45.294;11.816;2023-03-03T12:12:23;101386.60;;;18.50
68939;BMP180;59064;45.294;11.816;2023-03-03T12:18:08;101380.80;;;18.20
68939;BMP180;59064;45.294;11.816;2023-03-03T12:23:50;101377.40;;;18.64
68939;BMP180;59064;45.294;11.816;2023-03-03T12:29:06;101384.60;;;19.76
68939;BMP180;59064;45.294;11.816;2023-03-03T12:34:37;101375.60;;;20.02
68939;BMP180;59064;45.294;11.816;2023-03-03T12:40:31;101369.00;;;19.58
68939;BMP180;59064;45.294;11.816;2023-03-03T12:48:46;101355.80;;;19.10
68939;BMP180;59064;45.294;11.816;2023-03-03T13:02:42;101362.80;;;19.80
68939;BMP180;59064;45.294;11.816;2023-03-03T13:09:17;101355.40;;;19.40
68939;BMP180;59064;45.294;11.816;2023-03-03T13:11:59;101354.20;;;19.48
68939;BMP180;59064;45.294;11.816;2023-03-03T13:21:08;101356.20;;;19.76
68939;BMP180;59064;45.294;11.816;2023-03-03T13:26:42;101362.20;;;20.06
68939;BMP180;59064;45.294;11.816;2023-03-03T13:32:21;101370.40;;;20.24
68939;BMP180;59064;45.294;11.816;2023-03-03T13:35:23;101364.00;;;20.60
68939;BMP180;59064;45.294;11.816;2023-03-03T13:37:52;101364.40;;;20.54
68939;BMP180;59064;45.294;11.816;2023-03-03T13:43:58;101361.80;;;21.10
68939;BMP180;59064;45.294;11.816;2023-03-03T13:47:02;101355.80;;;21.10
68939;BMP180;59064;45.294;11.816;2023-03-03T13:49:40;101351.00;;;20.60
68939;BMP180;59064;45.294;11.816;2023-03-03T13:52:13;101348.60;;;20.30
68939;BMP180;59064;45.294;11.816;2023-03-03T14:07:33;101353.80;;;20.32
68939;BMP180;59064;45.294;11.816;2023-03-03T14:10:45;101352.80;;;20.76
68939;BMP180;59064;45.294;11.816;2023-03-03T14:16:14;101348.40;;;21.80
68939;BMP180;59064;45.294;11.816;2023-03-03T14:19:04;101347.40;;;22.02
68939;BMP180;59064;45.294;11.816;2023-03-03T14:30:24;101344.80;;;21.50
68939;BMP180;59064;45.294;11.816;2023-03-03T14:33:04;101348.60;;;21.10
68939;BMP180;59064;45.294;11.816;2023-03-03T14:35:41;101342.00;;;20.54
68939;BMP180;59064;45.294;11.816;2023-03-03T14:40:35;101346.00;;;19.16
68939;BMP180;59064;45.294;11.816;2023-03-03T14:45:54;101339.60;;;19.92
68939;BMP180;59064;45.294;11.816;2023-03-03T14:48:26;101345.20;;;20.10
68939;BMP180;59064;45.294;11.816;2023-03-03T14:50:59;101343.40;;;19.76
68939;BMP180;59064;45.294;11.816;2023-03-03T14:53:44;101342.40;;;18.96
68939;BMP180;59064;45.294;11.816;2023-03-03T14:56:22;101339.60;;;18.46
68939;BMP180;59064;45.294;11.816;2023-03-03T14:59:09;101339.00;;;17.90
68939;BMP180;59064;45.294;11.816;2023-03-03T15:01:37;101341.60;;;17.44
68939;BMP180;59064;45.294;11.816;2023-03-03T15:04:22;101344.00;;;17.00
68939;BMP180;59064;45.294;11.816;2023-03-03T15:06:58;101343.00;;;16.34
68939;BMP180;59064;45.294;11.816;2023-03-03T15:09:48;101345.00;;;15.80
68939;BMP180;59064;45.294;11.816;2023-03-03T15:12:35;101342.80;;;15.50
68939;BMP180;59064;45.294;11.816;2023-03-03T15:26:57;101338.60;;;14.90
68939;BMP180;59064;45.294;11.816;2023-03-03T15:29:37;101337.80;;;14.60
68939;BMP180;59064;45.294;11.816;2023-03-03T15:32:32;101336.00;;;14.50
68939;BMP180;59064;45.294;11.816;2023-03-03T15:40:50;101324.60;;;14.40
68939;BMP180;59064;45.294;11.816;2023-03-03T15:43:26;101327.80;;;14.40
68939;BMP180;59064;45.294;11.816;2023-03-03T16:00:57;101333.40;;;14.40
68939;BMP180;59064;45.294;11.816;2023-03-03T16:03:41;101334.60;;;14.30
68939;BMP180;59064;45.294;11.816;2023-03-03T16:06:29;101335.20;;;14.20
68939;BMP180;59064;45.294;11.816;2023-03-03T16:11:48;101340.00;;;14.10
68939;BMP180;59064;45.294;11.816;2023-03-03T16:20:36;101341.80;;;13.86
68939;BMP180;59064;45.294;11.816;2023-03-03T16:29:34;101348.80;;;13.88
68939;BMP180;59064;45.294;11.816;2023-03-03T16:32:33;101347.60;;;13.80
68939;BMP180;59064;45.294;11.816;2023-03-03T16:40:42;101347.40;;;13.50
68939;BMP180;59064;45.294;11.816;2023-03-03T16:46:36;101356.80;;;13.18
68939;BMP180;59064;45.294;11.816;2023-03-03T16:59:58;101367.20;;;12.00
68939;BMP180;59064;45.294;11.816;2023-03-03T17:02:57;101369.80;;;11.80
68939;BMP180;59064;45.294;11.816;2023-03-03T17:05:52;101372.20;;;11.70
68939;BMP180;59064;45.294;11.816;2023-03-03T17:16:57;101396.00;;;11.30
68939;BMP180;59064;45.294;11.816;2023-03-03T17:20:13;101393.80;;;11.20
68939;BMP180;59064;45.294;11.816;2023-03-03T17:35:26;101410.40;;;10.60
68939;BMP180;59064;45.294;11.816;2023-03-03T17:38:33;101412.20;;;10.50
68939;BMP180;59064;45.294;11.816;2023-03-03T17:48:06;101418.80;;;10.20
68939;BMP180;59064;45.294;11.816;2023-03-03T17:54:28;101427.00;;;10.06
68939;BMP180;59064;45.294;11.816;2023-03-03T18:02:37;101430.20;;;9.80
68939;BMP180;59064;45.294;11.816;2023-03-03T18:12:02;101436.80;;;9.70
68939;BMP180;59064;45.294;11.816;2023-03-03T18:14:51;101445.20;;;9.60
68939;BMP180;59064;45.294;11.816;2023-03-03T18:22:53;101457.00;;;9.50
68939;BMP180;59064;45.294;11.816;2023-03-03T18:25:50;101453.80;;;9.50
68939;BMP180;59064;45.294;11.816;2023-03-03T18:28:23;101452.40;;;9.40
68939;BMP180;59064;45.294;11.816;2023-03-03T18:31:00;101452.00;;;9.30
68939;BMP180;59064;45.294;11.816;2023-03-03T18:33:55;101462.40;;;9.30
68939;BMP180;59064;45.294;11.816;2023-03-03T18:38:52;101465.60;;;9.10
68939;BMP180;59064;45.294;11.816;2023-03-03T18:41:26;101466.60;;;9.10
68939;BMP180;59064;45.294;11.816;2023-03-03T18:43:55;101471.20;;;9.04
68939;BMP180;59064;45.294;11.816;2023-03-03T18:49:13;101475.80;;;8.90
68939;BMP180;59064;45.294;11.816;2023-03-03T19:05:15;101477.60;;;8.70
68939;BMP180;59064;45.294;11.816;2023-03-03T19:08:03;101479.20;;;8.70
68939;BMP180;59064;45.294;11.816;2023-03-03T19:10:51;101479.80;;;8.60
68939;BMP180;59064;45.294;11.816;2023-03-03T19:13:36;101483.80;;;8.50
68939;BMP180;59064;45.294;11.816;2023-03-03T19:16:04;101483.80;;;8.50
68939;BMP180;59064;45.294;11.816;2023-03-03T19:21:34;101485.60;;;8.40
68939;BMP180;59064;45.294;11.816;2023-03-03T19:24:04;101485.00;;;8.38
68939;BMP180;59064;45.294;11.816;2023-03-03T19:27:21;101481.40;;;8.38
68939;BMP180;59064;45.294;11.816;2023-03-03T19:35:17;101493.60;;;8.50
68939;BMP180;59064;45.294;11.816;2023-03-03T19:38:12;101497.60;;;8.50
68939;BMP180;59064;45.294;11.816;2023-03-03T19:41:26;101501.40;;;8.54
68939;BMP180;59064;45.294;11.816;2023-03-03T19:47:43;101501.20;;;8.50
68939;BMP180;59064;45.294;11.816;2023-03-03T19:53:21;101499.80;;;8.50
68939;BMP180;59064;45.294;11.816;2023-03-03T19:59:58;101507.40;;;8.50
68939;BMP180;59064;45.294;11.816;2023-03-03T20:09:07;101517.80;;;8.50
68939;BMP180;59064;45.294;11.816;2023-03-03T20:15:00;101521.60;;;8.50
68939;BMP180;59064;45.294;11.816;2023-03-03T20:20:04;101531.00;;;8.40
68939;BMP180;59064;45.294;11.816;2023-03-03T20:26:13;101537.40;;;8.22
68939;BMP180;59064;45.294;11.816;2023-03-03T20:28:44;101536.20;;;8.20
68939;BMP180;59064;45.294;11.816;2023-03-03T20:31:25;101536.60;;;8.20
68939;BMP180;59064;45.294;11.816;2023-03-03T20:52:07;101554.40;;;8.20
68939;BMP180;59064;45.294;11.816;2023-03-03T20:55:19;101552.60;;;8.24
68939;BMP180;59064;45.294;11.816;2023-03-03T20:58:09;101550.40;;;8.30
68939;BMP180;59064;45.294;11.816;2023-03-03T21:00:46;101547.00;;;8.26
68939;BMP180;59064;45.294;11.816;2023-03-03T21:03:33;101551.40;;;8.20
68939;BMP180;59064;45.294;11.816;2023-03-03T21:06:17;101553.60;;;8.20
68939;BMP180;59064;45.294;11.816;2023-03-03T21:08:51;101557.40;;;8.10
68939;BMP180;59064;45.294;11.816;2023-03-03T21:13:56;101557.80;;;8.00